createdAt,value
2022-08-07T00:02:36.164Z,20.25
2022-08-07T00:04:11.203Z,19.55
2022-08-07T00:06:51.307Z,19.52
2022-08-07T00:09:29.167Z,23.00
2022-08-07T00:12:03.279Z,20.50
2022-08-07T00:14:32.618Z,18.80
2022-08-07T00:20:00.399Z,19.52
2022-08-07T00:22:34.474Z,22.95
2022-08-07T00:25:15.748Z,19.80
2022-08-07T00:27:52.243Z,20.63
2022-08-07T00:30:27.364Z,21.13
2022-08-07T00:33:00.706Z,22.00
2022-08-07T00:35:31.412Z,20.10
2022-08-07T00:38:06.099Z,21.73
2022-08-07T00:40:39.960Z,18.83
2022-08-07T00:43:59.506Z,21.13
2022-08-07T00:46:02.522Z,21.95
2022-08-07T00:48:32.955Z,25.30
2022-08-07T00:51:01.234Z,24.65
2022-08-07T00:53:44.151Z,21.63
2022-08-07T00:56:19.854Z,19.48
2022-08-07T00:58:49.552Z,18.15
2022-08-07T01:01:18.462Z,19.77
2022-08-07T01:03:56.439Z,16.35
2022-08-07T01:06:30.449Z,21.48
2022-08-07T01:09:02.959Z,23.70
2022-08-07T01:12:09.583Z,23.17
2022-08-07T01:14:28.300Z,19.30
2022-08-07T01:16:59.697Z,19.00
2022-08-07T01:19:33.205Z,18.40
2022-08-07T01:22:03.155Z,18.35
2022-08-07T01:24:39.845Z,23.73
2022-08-07T01:27:19.673Z,20.77
2022-08-07T01:29:58.391Z,20.83
2022-08-07T01:32:30.797Z,20.33
2022-08-07T01:35:03.597Z,22.77
2022-08-07T01:37:33.776Z,19.85
2022-08-07T01:40:07.194Z,18.08
2022-08-07T01:42:58.624Z,22.93
2022-08-07T01:45:36.964Z,17.52
2022-08-07T01:48:18.091Z,17.65
2022-08-07T01:50:58.202Z,18.23
2022-08-07T01:54:12.540Z,16.15
2022-08-07T01:56:28.876Z,17.08
2022-08-07T01:59:15.671Z,17.63
2022-08-07T02:02:02.677Z,19.58
2022-08-07T02:04:56.273Z,23.55
2022-08-07T02:07:50.258Z,21.63
2022-08-07T02:10:32.506Z,20.23
2022-08-07T02:13:47.012Z,24.48
2022-08-07T02:16:19.825Z,22.35
2022-08-07T02:18:58.244Z,21.98
2022-08-07T02:21:27.077Z,27.65
2022-08-07T02:24:18.256Z,31.70
2022-08-07T02:26:48.283Z,28.08
2022-08-07T02:29:17.488Z,31.77
2022-08-07T02:31:54.621Z,30.55
2022-08-07T02:34:22.860Z,32.55
2022-08-07T02:36:59.298Z,32.10
2022-08-07T02:39:42.951Z,27.25
2022-08-07T02:42:19.794Z,28.02
2022-08-07T02:44:53.989Z,27.48
2022-08-07T02:47:28.858Z,26.40
2022-08-07T02:50:16.653Z,27.02
2022-08-07T02:53:06.366Z,23.77
2022-08-07T02:56:03.309Z,23.98
2022-08-07T02:58:34.383Z,25.63
2022-08-07T03:01:10.348Z,27.05
2022-08-07T03:03:50.875Z,24.63
2022-08-07T03:06:33.103Z,27.88
2022-08-07T03:09:11.343Z,25.55
2022-08-07T03:11:52.459Z,25.73
2022-08-07T03:14:34.879Z,24.02
2022-08-07T03:17:08.809Z,24.25
2022-08-07T03:19:40.099Z,25.10
2022-08-07T03:22:18.694Z,25.58
2022-08-07T03:27:30.366Z,20.60
2022-08-07T03:30:06.072Z,21.00
2022-08-07T03:32:49.184Z,20.77
2022-08-07T03:35:43.785Z,17.85
2022-08-07T03:38:29.396Z,14.80
2022-08-07T03:41:02.080Z,16.38
2022-08-07T03:43:35.963Z,11.15
2022-08-07T03:46:18.305Z,14.95
2022-08-07T03:49:02.712Z,14.38
2022-08-07T03:51:47.640Z,12.32
2022-08-07T03:54:35.286Z,14.20
2022-08-07T03:58:35.250Z,12.82
2022-08-07T04:00:03.858Z,13.65
2022-08-07T04:02:47.196Z,12.38
2022-08-07T04:05:39.872Z,13.98
2022-08-07T04:08:23.841Z,11.65
2022-08-07T04:12:15.586Z,18.60
2022-08-07T04:14:10.878Z,10.60
2022-08-07T04:16:38.352Z,10.15
2022-08-07T04:19:15.096Z,12.07
2022-08-07T04:22:00.247Z,9.82
2022-08-07T04:24:42.878Z,15.65
2022-08-07T04:27:36.001Z,10.40
2022-08-07T04:30:11.644Z,8.65
2022-08-07T04:32:58.576Z,10.35
2022-08-07T04:38:13.242Z,14.35
2022-08-07T04:40:51.923Z,9.65
2022-08-07T04:44:12.791Z,7.85
2022-08-07T04:46:59.617Z,12.73
2022-08-07T04:50:39.613Z,9.50
2022-08-07T04:53:39.959Z,9.43
2022-08-07T04:58:09.599Z,11.63
2022-08-07T05:00:12.442Z,10.85
2022-08-07T05:02:35.772Z,9.80
2022-08-07T05:08:18.220Z,9.60
2022-08-07T05:11:19.703Z,10.55
2022-08-07T05:14:56.444Z,13.55
2022-08-07T05:16:55.413Z,11.15
2022-08-07T05:19:32.657Z,12.90
2022-08-07T05:22:26.804Z,9.65
2022-08-07T05:25:01.824Z,9.15
2022-08-07T05:28:03.030Z,11.18
2022-08-07T05:30:32.329Z,11.90
2022-08-07T05:33:06.319Z,11.82
2022-08-07T05:35:42.159Z,10.02
2022-08-07T05:39:01.014Z,16.05
2022-08-07T05:41:11.937Z,10.70
2022-08-07T05:44:07.724Z,11.55
2022-08-07T05:46:39.376Z,8.48
2022-08-07T05:49:12.483Z,7.18
2022-08-07T05:51:46.371Z,8.02
2022-08-07T05:54:31.329Z,6.93
2022-08-07T05:57:16.368Z,10.25
2022-08-07T05:59:55.759Z,10.20
2022-08-07T06:02:33.234Z,13.38
2022-08-07T06:05:15.513Z,6.95
2022-08-07T06:08:12.339Z,7.60
2022-08-07T06:10:42.908Z,9.90
2022-08-07T06:13:13.554Z,6.72
2022-08-07T06:15:46.877Z,9.10
2022-08-07T06:18:28.038Z,10.55
2022-08-07T06:22:14.500Z,10.35
2022-08-07T06:24:52.234Z,7.80
2022-08-07T06:26:43.235Z,9.13
2022-08-07T06:29:12.101Z,13.77
2022-08-07T06:31:49.506Z,11.48
2022-08-07T06:34:28.065Z,6.40
2022-08-07T06:36:59.826Z,7.32
2022-08-07T06:40:16.590Z,6.85
2022-08-07T06:42:37.578Z,11.10
2022-08-07T06:45:21.728Z,6.80
2022-08-07T06:47:59.207Z,11.25
2022-08-07T06:50:37.461Z,10.15
2022-08-07T06:53:18.600Z,7.95
2022-08-07T06:56:15.042Z,7.68
2022-08-07T07:00:12.029Z,9.45
2022-08-07T07:01:48.697Z,9.38
2022-08-07T07:04:32.669Z,9.88
2022-08-07T07:07:18.789Z,8.95
2022-08-07T07:09:53.091Z,11.18
2022-08-07T07:12:36.600Z,6.65
2022-08-07T07:15:23.749Z,10.73
2022-08-07T07:18:14.577Z,7.63
2022-08-07T07:21:19.372Z,6.60
2022-08-07T07:24:09.457Z,7.55
2022-08-07T07:26:51.862Z,8.95
2022-08-07T07:29:57.172Z,9.82
2022-08-07T07:32:19.004Z,9.73
2022-08-07T07:34:50.043Z,9.38
2022-08-07T07:37:45.354Z,6.57
2022-08-07T07:40:16.268Z,10.15
2022-08-07T07:42:51.102Z,9.60
2022-08-07T07:46:39.706Z,10.60
2022-08-07T07:48:35.081Z,11.90
2022-08-07T07:51:09.144Z,6.22
2022-08-07T07:53:52.121Z,7.30
2022-08-07T07:56:30.005Z,7.85
2022-08-07T07:59:02.343Z,6.20
2022-08-07T08:02:03.893Z,5.35
2022-08-07T08:04:25.698Z,5.30
2022-08-07T08:06:56.816Z,6.18
2022-08-07T08:09:51.674Z,6.60
2022-08-07T08:12:51.573Z,5.88
2022-08-07T08:15:16.970Z,7.63
2022-08-07T08:17:57.709Z,8.88
2022-08-07T08:20:33.712Z,6.07
2022-08-07T08:23:28.043Z,9.52
2022-08-07T08:26:18.942Z,9.18
2022-08-07T08:28:51.578Z,5.53
2022-08-07T08:31:30.273Z,8.73
2022-08-07T08:34:27.006Z,9.63
2022-08-07T08:36:58.810Z,8.10
2022-08-07T08:39:39.056Z,8.93
2022-08-07T08:42:18.483Z,8.57
2022-08-07T08:45:59.532Z,9.68
2022-08-07T08:48:56.250Z,15.90
2022-08-07T08:52:13.406Z,9.10
2022-08-07T08:54:54.117Z,6.87
2022-08-07T08:57:38.567Z,9.80
2022-08-07T09:00:10.401Z,7.93
2022-08-07T09:03:11.885Z,7.35
2022-08-07T09:06:07.511Z,10.38
2022-08-07T09:08:58.593Z,10.68
2022-08-07T09:11:43.808Z,12.93
2022-08-07T09:14:34.985Z,8.90
2022-08-07T09:17:59.360Z,7.55
2022-08-07T09:20:43.343Z,9.43
2022-08-07T09:24:54.171Z,6.15
2022-08-07T09:26:30.239Z,7.53
2022-08-07T09:30:03.804Z,10.15
2022-08-07T09:32:24.319Z,6.55
2022-08-07T09:36:04.274Z,6.70
2022-08-07T09:38:12.678Z,7.82
2022-08-07T09:41:07.281Z,7.75
2022-08-07T09:44:19.244Z,7.93
2022-08-07T09:47:42.627Z,4.38
2022-08-07T09:50:19.182Z,6.95
2022-08-07T09:52:53.990Z,7.55
2022-08-07T09:55:36.901Z,6.53
2022-08-07T09:58:54.139Z,18.55
2022-08-07T10:01:53.163Z,18.05
2022-08-07T10:04:32.979Z,10.63
2022-08-07T10:07:24.605Z,8.65
2022-08-07T10:11:16.431Z,8.88
2022-08-07T10:14:03.111Z,11.73
2022-08-07T10:16:47.183Z,12.02
2022-08-07T10:19:38.520Z,6.60
2022-08-07T10:22:33.344Z,8.25
2022-08-07T10:25:11.849Z,6.38
2022-08-07T10:28:10.566Z,13.75
2022-08-07T10:31:12.365Z,7.60
2022-08-07T10:34:27.206Z,11.40
2022-08-07T10:37:06.373Z,7.93
2022-08-07T10:40:02.951Z,6.40
2022-08-07T10:42:43.935Z,7.65
2022-08-07T10:45:57.427Z,6.32
2022-08-07T10:48:49.362Z,6.63
2022-08-07T10:51:39.045Z,5.10
2022-08-07T10:54:17.469Z,7.55
2022-08-07T10:57:15.483Z,4.85
2022-08-07T11:00:05.839Z,4.68
2022-08-07T11:02:53.912Z,9.27
2022-08-07T11:05:51.407Z,10.77
2022-08-07T11:08:30.308Z,6.72
2022-08-07T11:11:13.924Z,7.22
2022-08-07T11:14:46.197Z,10.82
2022-08-07T11:17:02.111Z,10.80
2022-08-07T11:19:44.362Z,11.55
2022-08-07T11:22:45.614Z,9.63
2022-08-07T11:25:31.588Z,6.85
2022-08-07T11:28:15.397Z,11.10
2022-08-07T11:31:20.550Z,8.02
2022-08-07T11:34:16.368Z,9.25
2022-08-07T11:37:06.781Z,9.50
2022-08-07T11:40:07.733Z,6.53
2022-08-07T11:42:47.522Z,4.80
2022-08-07T11:45:35.981Z,6.45
2022-08-07T11:48:29.582Z,5.75
2022-08-07T11:51:22.466Z,5.65
2022-08-07T11:54:37.910Z,6.35
2022-08-07T11:58:00.347Z,5.20
2022-08-07T12:00:38.882Z,7.15
2022-08-07T12:03:44.283Z,5.63
2022-08-07T12:06:37.637Z,8.32
2022-08-07T12:09:23.440Z,9.15
2022-08-07T12:12:12.108Z,7.07
2022-08-07T12:15:02.481Z,7.78
2022-08-07T12:18:12.528Z,5.88
2022-08-07T12:21:09.250Z,6.57
2022-08-07T12:24:06.771Z,9.23
2022-08-07T12:27:00.797Z,5.10
2022-08-07T12:29:43.396Z,5.95
2022-08-07T12:32:28.891Z,6.57
2022-08-07T12:35:02.922Z,5.70
2022-08-07T12:38:11.517Z,6.05
2022-08-07T12:40:47.740Z,6.60
2022-08-07T12:44:01.592Z,6.30
2022-08-07T12:46:26.548Z,4.13
2022-08-07T12:49:10.105Z,7.28
2022-08-07T12:52:12.174Z,7.90
2022-08-07T12:55:05.650Z,8.50
2022-08-07T12:58:01.367Z,4.32
2022-08-07T13:01:19.829Z,4.80
2022-08-07T13:04:09.823Z,6.18
2022-08-07T13:07:07.849Z,10.00
2022-08-07T13:12:57.039Z,5.72
2022-08-07T13:15:35.696Z,5.38
2022-08-07T13:18:26.899Z,6.15
2022-08-07T13:21:08.215Z,11.52
2022-08-07T13:24:04.616Z,12.05
2022-08-07T13:26:52.458Z,13.02
2022-08-07T13:29:27.440Z,15.73
2022-08-07T13:32:31.832Z,9.75
2022-08-07T13:36:00.866Z,8.05
2022-08-07T13:38:45.492Z,7.80
2022-08-07T13:41:21.564Z,7.53
2022-08-07T13:43:55.918Z,14.95
2022-08-07T13:46:33.810Z,10.02
2022-08-07T13:50:32.841Z,9.70
2022-08-07T13:52:22.598Z,9.38
2022-08-07T13:54:55.842Z,7.93
2022-08-07T13:57:37.601Z,9.02
2022-08-07T14:00:13.429Z,10.73
2022-08-07T14:02:59.074Z,7.85
2022-08-07T14:05:38.054Z,8.27
2022-08-07T14:08:09.674Z,12.32
2022-08-07T14:10:43.718Z,14.35
2022-08-07T14:13:19.314Z,10.35
2022-08-07T14:16:04.283Z,9.68
2022-08-07T14:18:40.114Z,11.07
2022-08-07T14:21:20.874Z,12.20
2022-08-07T14:24:14.582Z,9.18
2022-08-07T14:27:00.930Z,10.85
2022-08-07T14:30:07.916Z,7.20
2022-08-07T14:32:47.039Z,9.20
2022-08-07T14:35:43.097Z,14.73
2022-08-07T14:38:26.147Z,9.00
2022-08-07T14:41:04.037Z,10.80
2022-08-07T14:43:58.342Z,8.93
2022-08-07T14:46:34.619Z,8.23
2022-08-07T14:49:55.872Z,11.63
2022-08-07T14:52:03.296Z,7.47
2022-08-07T14:57:54.462Z,9.95
2022-08-07T15:03:16.394Z,7.45
2022-08-07T15:05:54.778Z,7.95
2022-08-07T15:08:50.215Z,7.97
2022-08-07T15:11:54.455Z,10.85
2022-08-07T15:14:23.373Z,7.32
2022-08-07T15:17:22.770Z,10.38
2022-08-07T15:20:32.823Z,7.22
2022-08-07T15:22:54.098Z,10.48
2022-08-07T15:25:36.743Z,9.63
2022-08-07T15:28:32.278Z,9.43
2022-08-07T15:31:04.819Z,9.45
2022-08-07T15:33:36.488Z,6.70
2022-08-07T15:36:08.612Z,6.63
2022-08-07T15:38:51.450Z,8.40
2022-08-07T15:42:46.467Z,7.93
2022-08-07T15:44:23.643Z,8.50
2022-08-07T15:47:08.958Z,8.48
2022-08-07T15:50:05.039Z,8.60
2022-08-07T15:52:38.548Z,9.05
2022-08-07T15:55:12.258Z,9.75
2022-08-07T15:57:49.510Z,8.27
2022-08-07T16:00:31.824Z,8.40
2022-08-07T16:03:20.988Z,12.10
2022-08-07T16:06:00.105Z,7.80
2022-08-07T16:08:38.187Z,7.65
2022-08-07T16:11:26.928Z,10.30
2022-08-07T16:14:12.320Z,6.50
2022-08-07T16:16:56.714Z,7.28
2022-08-07T16:19:58.995Z,6.65
2022-08-07T16:22:54.517Z,6.88
2022-08-07T16:25:52.563Z,8.05
2022-08-07T16:30:08.246Z,10.27
2022-08-07T16:31:51.818Z,14.05
2022-08-07T16:34:48.850Z,8.82
2022-08-07T16:38:06.538Z,9.18
2022-08-07T16:41:17.420Z,8.63
2022-08-07T16:44:47.325Z,9.30
2022-08-07T16:47:51.602Z,9.00
2022-08-07T16:51:21.035Z,10.85
2022-08-07T16:54:16.739Z,11.93
2022-08-07T16:56:55.218Z,10.43
2022-08-07T16:59:55.867Z,8.32
2022-08-07T17:02:51.750Z,12.38
2022-08-07T17:06:19.379Z,7.82
2022-08-07T17:08:19.942Z,10.05
2022-08-07T17:10:59.129Z,9.75
2022-08-07T17:13:41.600Z,9.88
2022-08-07T17:16:29.983Z,9.52
2022-08-07T17:19:01.687Z,11.23
2022-08-07T17:21:50.844Z,11.25
2022-08-07T17:24:38.652Z,11.75
2022-08-07T17:27:34.815Z,12.93
2022-08-07T17:30:18.090Z,16.67
2022-08-07T17:33:02.674Z,19.08
2022-08-07T17:35:58.542Z,11.80
2022-08-07T17:38:40.341Z,15.27
2022-08-07T17:42:04.282Z,12.82
2022-08-07T17:44:33.732Z,13.05
2022-08-07T17:47:16.952Z,13.45
2022-08-07T17:50:30.413Z,17.35
2022-08-07T17:54:00.536Z,15.32
2022-08-07T17:56:36.329Z,14.48
2022-08-07T17:59:35.591Z,12.80
2022-08-07T18:02:12.043Z,13.25
2022-08-07T18:05:20.658Z,10.63
2022-08-07T18:08:24.257Z,10.52
2022-08-07T18:11:53.715Z,10.88
2022-08-07T18:14:45.040Z,11.68
2022-08-07T18:18:47.400Z,13.90
2022-08-07T18:21:09.614Z,12.55
2022-08-07T18:23:43.721Z,14.23
2022-08-07T18:26:26.448Z,18.67
2022-08-07T18:30:05.425Z,22.40
2022-08-07T18:32:26.207Z,21.83
2022-08-07T18:35:50.320Z,37.78
2022-08-07T18:38:55.691Z,42.08
2022-08-07T18:41:45.784Z,37.88
2022-08-07T18:44:32.761Z,25.42
2022-08-07T18:47:20.688Z,19.85
2022-08-07T18:50:39.377Z,15.70
2022-08-07T18:53:12.534Z,15.18
2022-08-07T18:55:57.326Z,11.75
2022-08-07T18:58:36.011Z,11.05
2022-08-07T19:02:17.324Z,10.48
2022-08-07T19:04:13.241Z,13.25
2022-08-07T19:07:02.660Z,13.88
2022-08-07T19:09:55.838Z,19.77
2022-08-07T19:12:48.590Z,12.00
2022-08-07T19:16:04.216Z,11.55
2022-08-07T19:18:34.828Z,10.85
2022-08-07T19:21:46.629Z,12.57
2022-08-07T19:28:29.920Z,10.35
2022-08-07T19:31:05.607Z,10.10
2022-08-07T19:33:08.351Z,11.98
2022-08-07T19:35:48.171Z,12.10
2022-08-07T19:38:20.578Z,13.27
2022-08-07T19:40:51.888Z,10.80
2022-08-07T19:43:44.879Z,13.82
2022-08-07T19:46:17.848Z,11.75
2022-08-07T19:48:53.788Z,10.80
2022-08-07T19:51:50.908Z,9.82
2022-08-07T19:54:33.986Z,11.75
2022-08-07T20:00:02.610Z,13.18
2022-08-07T20:02:52.147Z,11.70
2022-08-07T20:05:28.036Z,8.68
2022-08-07T20:08:04.410Z,14.10
2022-08-07T20:10:55.161Z,11.13
2022-08-07T20:13:34.717Z,9.77
2022-08-07T20:16:22.422Z,10.57
2022-08-07T20:19:02.362Z,9.88
2022-08-07T20:21:41.791Z,9.55
2022-08-07T20:24:28.486Z,11.82
2022-08-07T20:27:11.682Z,10.90
2022-08-07T20:29:58.392Z,13.50
2022-08-07T20:32:40.416Z,11.80
2022-08-07T20:35:16.051Z,12.13
2022-08-07T20:37:58.423Z,12.20
2022-08-07T20:40:41.311Z,10.25
2022-08-07T20:43:16.976Z,8.93
2022-08-07T20:46:30.278Z,8.18
2022-08-07T20:49:53.915Z,7.25
2022-08-07T20:51:35.742Z,6.85
2022-08-07T20:54:15.111Z,7.43
2022-08-07T20:56:52.156Z,7.53
2022-08-07T21:00:04.316Z,8.43
2022-08-07T21:02:40.291Z,9.48
2022-08-07T21:05:16.623Z,9.80
2022-08-07T21:07:49.860Z,7.07
2022-08-07T21:10:25.278Z,8.98
2022-08-07T21:13:04.263Z,9.82
2022-08-07T21:15:58.579Z,9.60
2022-08-07T21:18:33.633Z,8.93
2022-08-07T21:21:04.793Z,9.10
2022-08-07T21:24:02.564Z,6.30
2022-08-07T21:26:42.853Z,6.95
2022-08-07T21:29:18.260Z,9.73
2022-08-07T21:32:43.760Z,9.57
2022-08-07T21:35:15.861Z,11.85
2022-08-07T21:38:31.458Z,15.02
2022-08-07T21:41:10.919Z,11.30
2022-08-07T21:43:55.930Z,11.15
2022-08-07T21:46:50.530Z,12.57
2022-08-07T21:50:03.598Z,11.50
2022-08-07T21:52:35.905Z,12.52
2022-08-07T21:55:28.147Z,10.93
2022-08-07T21:58:12.297Z,10.98
2022-08-07T22:01:05.199Z,10.85
2022-08-07T22:03:48.393Z,15.35
2022-08-07T22:06:30.408Z,11.50
2022-08-07T22:09:07.030Z,9.52
2022-08-07T22:12:05.464Z,9.77
2022-08-07T22:14:44.114Z,10.55
2022-08-07T22:17:44.403Z,10.00
2022-08-07T22:20:23.322Z,12.05
2022-08-07T22:23:13.371Z,13.80
2022-08-07T22:26:12.435Z,12.27
2022-08-07T22:29:13.959Z,12.27
2022-08-07T22:32:05.523Z,15.82
2022-08-07T22:34:53.399Z,12.20
2022-08-07T22:38:04.390Z,10.25
2022-08-07T22:41:11.399Z,14.40
2022-08-07T22:43:44.419Z,13.15
2022-08-07T22:46:47.065Z,12.00
2022-08-07T22:49:27.870Z,10.02
2022-08-07T22:52:37.684Z,20.40
2022-08-07T22:55:23.579Z,17.08
2022-08-07T22:58:27.660Z,10.68
2022-08-07T23:01:15.569Z,11.73
2022-08-07T23:04:16.294Z,9.40
2022-08-07T23:07:00.976Z,9.77
2022-08-07T23:10:03.734Z,8.23
2022-08-07T23:12:44.523Z,7.88
2022-08-07T23:16:06.093Z,7.00
2022-08-07T23:18:33.947Z,6.05
2022-08-07T23:21:29.799Z,7.45
2022-08-07T23:24:47.679Z,8.25
2022-08-07T23:28:20.322Z,9.20
2022-08-07T23:30:46.721Z,9.93
2022-08-07T23:34:21.275Z,8.45
2022-08-07T23:37:19.667Z,6.75
2022-08-07T23:40:26.240Z,5.97
2022-08-07T23:43:37.988Z,7.53
2022-08-07T23:46:30.420Z,6.38
2022-08-07T23:49:23.048Z,6.65
2022-08-07T23:53:01.448Z,9.95
2022-08-07T23:55:51.846Z,9.15
2022-08-07T23:58:21.629Z,8.63
